createdAt,value
2018-07-28T00:00:19.937Z,67.11
2018-07-28T00:01:00.517Z,66.72
2018-07-28T00:01:41.092Z,67.21
2018-07-28T00:02:21.733Z,66.82
2018-07-28T00:03:02.303Z,66.69
2018-07-28T00:03:42.869Z,67.08
2018-07-28T00:04:23.428Z,67.37
2018-07-28T00:05:03.996Z,66.88
2018-07-28T00:05:44.567Z,66.69
2018-07-28T00:06:25.135Z,67.02
2018-07-28T00:07:05.731Z,67.11
2018-07-28T00:07:46.305Z,66.72
2018-07-28T00:08:26.927Z,67.18
2018-07-28T00:09:07.455Z,67.08
2018-07-28T00:09:48.017Z,66.98
2018-07-28T00:10:28.606Z,66.98
2018-07-28T00:11:09.233Z,67.18
2018-07-28T00:11:56.722Z,66.88
2018-07-28T00:12:37.284Z,66.88
2018-07-28T00:13:17.850Z,66.78
2018-07-28T00:13:58.507Z,67.27
2018-07-28T00:14:39.113Z,66.69
2018-07-28T00:15:19.679Z,67.27
2018-07-28T00:16:00.261Z,67.27
2018-07-28T00:16:40.835Z,67.46
2018-07-28T00:17:21.502Z,67.27
2018-07-28T00:18:02.206Z,67.46
2018-07-28T00:18:42.902Z,67.27
2018-07-28T00:19:23.538Z,67.27
2018-07-28T00:20:04.207Z,67.27
2018-07-28T00:20:44.759Z,67.27
2018-07-28T00:21:25.308Z,67.08
2018-07-28T00:22:05.870Z,66.69
2018-07-28T00:22:46.445Z,67.18
2018-07-28T00:23:27.036Z,66.69
2018-07-28T00:24:07.576Z,67.08
2018-07-28T00:24:48.133Z,67.27
2018-07-28T00:25:28.719Z,66.69
2018-07-28T00:26:09.290Z,67.18
2018-07-28T00:26:49.868Z,67.46
2018-07-28T00:27:30.436Z,67.08
2018-07-28T00:28:10.985Z,67.27
2018-07-28T00:28:51.546Z,67.08
2018-07-28T00:29:32.107Z,66.78
2018-07-28T00:30:12.672Z,67.37
2018-07-28T00:30:53.240Z,67.27
2018-07-28T00:31:33.793Z,67.46
2018-07-28T00:32:14.366Z,67.27
2018-07-28T00:32:54.987Z,67.18
2018-07-28T00:33:35.557Z,67.27
2018-07-28T00:34:16.132Z,67.37
2018-07-28T00:34:56.700Z,67.18
2018-07-28T00:35:37.260Z,67.46
2018-07-28T00:36:17.840Z,67.56
2018-07-28T00:36:58.409Z,67.37
2018-07-28T00:37:38.975Z,67.18
2018-07-28T00:38:19.562Z,67.66
2018-07-28T00:39:00.159Z,68.05
2018-07-28T00:39:40.729Z,67.85
2018-07-28T00:40:21.296Z,67.76
2018-07-28T00:41:01.857Z,67.46
2018-07-28T00:41:42.437Z,67.37
2018-07-28T00:42:22.994Z,67.66
2018-07-28T00:43:03.564Z,67.37
2018-07-28T00:43:44.124Z,67.37
2018-07-28T00:44:24.756Z,67.85
2018-07-28T00:45:05.308Z,67.95
2018-07-28T00:45:45.871Z,67.76
2018-07-28T00:46:26.447Z,67.46
2018-07-28T00:47:07.017Z,68.15
2018-07-28T00:47:47.601Z,67.95
2018-07-28T00:48:28.177Z,68.05
2018-07-28T00:49:08.741Z,68.15
2018-07-28T00:49:49.318Z,68.15
2018-07-28T00:50:29.893Z,68.05
2018-07-28T00:51:10.471Z,68.05
2018-07-28T00:51:51.039Z,67.95
2018-07-28T00:52:31.609Z,68.24
2018-07-28T00:53:12.240Z,68.15
2018-07-28T00:53:52.829Z,67.95
2018-07-28T00:54:33.384Z,67.66
2018-07-28T00:55:13.942Z,67.66
2018-07-28T00:55:54.529Z,67.43
2018-07-28T00:56:35.100Z,67.43
2018-07-28T00:57:15.813Z,68.24
2018-07-28T00:57:56.440Z,68.3
2018-07-28T00:58:36.979Z,68.21
2018-07-28T00:59:17.549Z,68.21
2018-07-28T00:59:58.115Z,68.59
2018-07-28T01:00:38.694Z,68.88
2018-07-28T01:01:19.251Z,68.98
2018-07-28T01:01:59.820Z,68.98
2018-07-28T01:02:40.408Z,68.79
2018-07-28T01:03:20.973Z,68.69
2018-07-28T01:04:01.549Z,69.37
2018-07-28T01:04:42.115Z,69.27
2018-07-28T01:05:22.708Z,68.98
2018-07-28T01:06:03.280Z,69.46
2018-07-28T01:06:43.896Z,69.17
2018-07-28T01:07:24.540Z,69.27
2018-07-28T01:08:05.153Z,69.37
2018-07-28T01:08:45.679Z,69.66
2018-07-28T01:09:26.460Z,69.56
2018-07-28T01:10:06.864Z,69.75
2018-07-28T01:10:47.424Z,69.66
2018-07-28T01:11:27.987Z,70.04
2018-07-28T01:12:08.565Z,69.85
2018-07-28T01:12:49.121Z,69.85
2018-07-28T01:13:29.678Z,69.85
2018-07-28T01:14:10.253Z,69.75
2018-07-28T01:14:50.832Z,70.72
2018-07-28T01:15:31.385Z,70.43
2018-07-28T01:16:11.949Z,70.2
2018-07-28T01:16:52.508Z,70.4
2018-07-28T01:17:33.218Z,70.4
2018-07-28T01:18:13.735Z,70.43
2018-07-28T01:18:54.285Z,70.34
2018-07-28T01:19:34.851Z,70.4
2018-07-28T01:20:15.512Z,70.62
2018-07-28T01:20:56.011Z,70.59
2018-07-28T01:21:36.556Z,70.72
2018-07-28T01:22:17.185Z,70.68
2018-07-28T01:22:57.736Z,70.5
2018-07-28T01:23:38.333Z,70.68
2018-07-28T01:24:19.028Z,70.72
2018-07-28T01:24:59.616Z,70.72
2018-07-28T01:25:40.185Z,70.53
2018-07-28T01:26:20.756Z,70.82
2018-07-28T01:27:01.408Z,70.98
2018-07-28T01:27:41.980Z,70.72
2018-07-28T01:28:22.538Z,70.43
2018-07-28T01:29:03.103Z,70.53
2018-07-28T01:29:43.743Z,70.72
2018-07-28T01:30:24.322Z,71.3
2018-07-28T01:31:04.898Z,71.2
2018-07-28T01:31:45.466Z,71.2
2018-07-28T01:32:26.048Z,71.4
2018-07-28T01:33:06.612Z,71.2
2018-07-28T01:33:47.166Z,71.17
2018-07-28T01:34:27.733Z,70.88
2018-07-28T01:35:08.387Z,71.56
2018-07-28T01:35:49.012Z,71.36
2018-07-28T01:36:29.584Z,71.84
2018-07-28T01:37:10.153Z,71.84
2018-07-28T01:37:50.726Z,71.66
2018-07-28T01:38:31.290Z,71.75
2018-07-28T01:39:11.832Z,71.94
2018-07-28T01:39:52.435Z,72.33
2018-07-28T01:40:32.997Z,72.14
2018-07-28T01:41:13.572Z,72.33
2018-07-28T01:41:54.137Z,72.42
2018-07-28T01:42:34.697Z,72.91
2018-07-28T01:43:15.295Z,72.81
2018-07-28T01:43:55.899Z,72.72
2018-07-28T01:44:36.464Z,72.52
2018-07-28T01:45:17.056Z,72.72
2018-07-28T01:45:57.694Z,72.81
2018-07-28T01:46:38.252Z,73.01
2018-07-28T01:47:19.023Z,73.2
2018-07-28T01:47:59.619Z,73.01
2018-07-28T01:48:40.197Z,73.2
2018-07-28T01:49:20.794Z,73.01
2018-07-28T01:50:01.460Z,73.3
2018-07-28T01:50:42.030Z,73.68
2018-07-28T01:51:22.631Z,73.78
2018-07-28T01:52:03.201Z,74.07
2018-07-28T01:52:43.778Z,73.97
2018-07-28T01:53:24.342Z,73.88
2018-07-28T01:54:04.904Z,74.07
2018-07-28T01:54:45.558Z,73.97
2018-07-28T01:55:26.111Z,73.78
2018-07-28T01:56:06.728Z,73.49
2018-07-28T01:56:47.284Z,73.68
2018-07-28T01:57:27.851Z,73.39
2018-07-28T01:58:08.394Z,73.39
2018-07-28T01:58:48.976Z,73.78
2018-07-28T01:59:29.628Z,74.17
2018-07-28T02:00:10.172Z,73.94
2018-07-28T02:00:50.736Z,74.23
2018-07-28T02:01:31.290Z,74.71
2018-07-28T02:02:12.010Z,74.75
2018-07-28T02:02:52.697Z,74.17
2018-07-28T02:03:33.226Z,74.04
2018-07-28T02:04:13.785Z,74.27
2018-07-28T02:04:54.590Z,74.65
2018-07-28T02:05:35.139Z,74.17
2018-07-28T02:06:15.722Z,74.23
2018-07-28T02:06:56.288Z,73.97
2018-07-28T02:07:36.846Z,73.55
2018-07-28T02:08:17.407Z,73.84
2018-07-28T02:08:57.971Z,73.65
2018-07-28T02:09:38.602Z,73.74
2018-07-28T02:10:19.154Z,74.23
2018-07-28T02:10:59.722Z,74.04
2018-07-28T02:11:40.358Z,74.42
2018-07-28T02:12:20.922Z,74.62
2018-07-28T02:13:01.484Z,74.71
2018-07-28T02:13:42.035Z,74.62
2018-07-28T02:14:22.614Z,74.42
2018-07-28T02:15:03.197Z,74.71
2018-07-28T02:15:43.763Z,74.62
2018-07-28T02:16:24.326Z,75
2018-07-28T02:17:04.894Z,75.1
2018-07-28T02:17:45.453Z,75.2
2018-07-28T02:18:26.044Z,75.1
2018-07-28T02:19:06.618Z,75.1
2018-07-28T02:19:47.172Z,75.68
2018-07-28T02:20:27.797Z,75.48
2018-07-28T02:21:08.370Z,75.87
2018-07-28T02:21:48.937Z,75.48
2018-07-28T02:22:29.492Z,75.87
2018-07-28T02:23:10.107Z,75.68
2018-07-28T02:23:50.672Z,75.78
2018-07-28T02:24:31.245Z,75.48
2018-07-28T02:25:11.810Z,75
2018-07-28T02:25:52.388Z,75.1
2018-07-28T02:26:32.960Z,75.1
2018-07-28T02:27:13.514Z,75.1
2018-07-28T02:27:54.068Z,75
2018-07-28T02:28:34.637Z,75.2
2018-07-28T02:29:15.201Z,75.39
2018-07-28T02:29:55.761Z,74.9
2018-07-28T02:30:36.322Z,75.58
2018-07-28T02:31:16.941Z,75.39
2018-07-28T02:31:57.496Z,74.71
2018-07-28T02:32:38.069Z,75.1
2018-07-28T02:33:18.633Z,74.9
2018-07-28T02:33:59.273Z,75.29
2018-07-28T02:34:39.853Z,75
2018-07-28T02:35:20.420Z,74.9
2018-07-28T02:36:00.989Z,74.9
2018-07-28T02:36:41.596Z,75.1
2018-07-28T02:37:22.162Z,75.2
2018-07-28T02:38:02.737Z,75.39
2018-07-28T02:38:43.303Z,75.58
2018-07-28T02:39:23.983Z,75.48
2018-07-28T02:40:04.549Z,75.78
2018-07-28T02:40:45.126Z,75.68
2018-07-28T02:41:25.700Z,75.87
2018-07-28T02:42:06.260Z,75.58
2018-07-28T02:42:46.814Z,76.03
2018-07-28T02:43:27.377Z,75.87
2018-07-28T02:44:07.935Z,76.06
2018-07-28T02:44:48.594Z,76.16
2018-07-28T02:45:29.165Z,75.97
2018-07-28T02:46:09.735Z,76.06
2018-07-28T02:46:50.325Z,75.87
2018-07-28T02:47:30.932Z,75.58
2018-07-28T02:48:11.550Z,75.68
2018-07-28T02:48:52.062Z,75.54
2018-07-28T02:49:32.627Z,75.68
2018-07-28T02:50:13.260Z,76.06
2018-07-28T02:50:53.830Z,75.87
2018-07-28T02:51:34.397Z,76.26
2018-07-28T02:52:14.963Z,75.97
2018-07-28T02:52:55.608Z,76.03
2018-07-28T02:53:36.192Z,76.32
2018-07-28T02:54:16.766Z,76.03
2018-07-28T02:54:57.341Z,76.32
2018-07-28T02:55:37.911Z,76.32
2018-07-28T02:56:18.485Z,76.8
2018-07-28T02:56:59.052Z,77.19
2018-07-28T02:57:39.619Z,76.9
2018-07-28T02:58:20.249Z,76.9
2018-07-28T02:59:00.840Z,77.09
2018-07-28T02:59:41.397Z,77
2018-07-28T03:00:22.092Z,76.8
2018-07-28T03:01:02.578Z,77
2018-07-28T03:01:43.150Z,77.09
2018-07-28T03:02:23.698Z,77.19
2018-07-28T03:03:04.265Z,76.42
2018-07-28T03:03:44.841Z,76.9
2018-07-28T03:04:25.405Z,77
2018-07-28T03:05:05.956Z,77.48
2018-07-28T03:05:46.522Z,77
2018-07-28T03:06:27.119Z,77
2018-07-28T03:07:07.719Z,77
2018-07-28T03:07:48.266Z,77.09
2018-07-28T03:08:28.814Z,76.9
2018-07-28T03:09:09.410Z,76.9
2018-07-28T03:09:49.996Z,76.9
2018-07-28T03:10:30.574Z,77.09
2018-07-28T03:11:11.174Z,77.57
2018-07-28T03:11:51.857Z,77.57
2018-07-28T03:12:32.445Z,77
2018-07-28T03:13:13.031Z,77.19
2018-07-28T03:13:53.595Z,77.28
2018-07-28T03:14:34.161Z,77.28
2018-07-28T03:15:14.740Z,77.19
2018-07-28T03:15:55.312Z,77.38
2018-07-28T03:16:35.888Z,77.28
2018-07-28T03:17:16.478Z,77.09
2018-07-28T03:17:57.041Z,77.28
2018-07-28T03:18:37.618Z,77.48
2018-07-28T03:19:18.180Z,77.48
2018-07-28T03:19:58.740Z,77.48
2018-07-28T03:20:39.317Z,77.19
2018-07-28T03:21:19.870Z,76.9
2018-07-28T03:22:00.428Z,77.09
2018-07-28T03:22:41.098Z,77.28
2018-07-28T03:23:21.661Z,77.19
2018-07-28T03:24:02.236Z,77.38
2018-07-28T03:24:42.795Z,77.19
2018-07-28T03:25:23.453Z,77
2018-07-28T03:26:04.014Z,77.28
2018-07-28T03:26:44.612Z,77.48
2018-07-28T03:27:25.157Z,77.28
2018-07-28T03:28:05.728Z,77
2018-07-28T03:28:46.285Z,77.19
2018-07-28T03:29:26.862Z,77.28
2018-07-28T03:30:07.505Z,77.19
2018-07-28T03:30:48.088Z,77.48
2018-07-28T03:31:28.656Z,77.57
2018-07-28T03:32:09.218Z,77.57
2018-07-28T03:32:49.795Z,77.48
2018-07-28T03:33:30.356Z,77.48
2018-07-28T03:34:10.998Z,77.67
2018-07-28T03:34:51.581Z,77.67
2018-07-28T03:35:32.146Z,77.38
2018-07-28T03:36:12.716Z,77.38
2018-07-28T03:36:53.277Z,77.38
2018-07-28T03:37:33.853Z,77.38
2018-07-28T03:38:14.420Z,77.38
2018-07-28T03:38:54.995Z,77.19
2018-07-28T03:39:35.567Z,77.76
2018-07-28T03:40:16.140Z,77.28
2018-07-28T03:40:56.705Z,76.8
2018-07-28T03:41:37.270Z,77.28
2018-07-28T03:42:17.859Z,77.28
2018-07-28T03:42:58.480Z,77.19
2018-07-28T03:43:39.064Z,77.19
2018-07-28T03:44:19.613Z,77.48
2018-07-28T03:45:00.197Z,77.38
2018-07-28T03:45:40.785Z,77
2018-07-28T03:46:21.357Z,77.09
2018-07-28T03:47:01.922Z,77
2018-07-28T03:47:42.490Z,77.38
2018-07-28T03:48:23.070Z,77
2018-07-28T03:49:03.634Z,77.38
2018-07-28T03:49:44.212Z,77.76
2018-07-28T03:50:24.784Z,77.76
2018-07-28T03:51:05.351Z,77.67
2018-07-28T03:51:45.920Z,78.15
2018-07-28T03:52:26.546Z,78.06
2018-07-28T03:53:07.098Z,77.96
2018-07-28T03:53:47.695Z,77.96
2018-07-28T03:54:28.307Z,77.86
2018-07-28T03:55:08.890Z,77.96
2018-07-28T03:55:49.451Z,78.15
2018-07-28T03:56:30.061Z,77.96
2018-07-28T03:57:10.591Z,78.06
2018-07-28T03:57:51.163Z,78.25
2018-07-28T03:58:31.802Z,77.96
2018-07-28T03:59:12.386Z,77
2018-07-28T03:59:52.965Z,77.38
2018-07-28T04:00:33.531Z,77.96
2018-07-28T04:01:14.116Z,77.86
2018-07-28T04:01:54.713Z,77.96
2018-07-28T04:02:35.286Z,77.96
2018-07-28T04:03:15.929Z,77.57
2018-07-28T04:03:56.501Z,77.76
2018-07-28T04:04:37.103Z,77.86
2018-07-28T04:05:17.656Z,77.76
2018-07-28T04:05:58.284Z,77.67
2018-07-28T04:06:38.823Z,77.76
2018-07-28T04:07:19.384Z,77.48
2018-07-28T04:07:59.952Z,77.76
2018-07-28T04:08:40.673Z,77.67
2018-07-28T04:09:21.265Z,77.09
2018-07-28T04:10:01.829Z,77.38
2018-07-28T04:10:42.385Z,77.38
2018-07-28T04:11:23.005Z,77.38
2018-07-28T04:12:03.564Z,77.38
2018-07-28T04:12:44.118Z,77.38
2018-07-28T04:13:24.749Z,77.48
2018-07-28T04:14:05.455Z,77.76
2018-07-28T04:14:45.886Z,77.48
2018-07-28T04:15:26.458Z,77.38
2018-07-28T04:16:07.025Z,77.28
2018-07-28T04:16:47.592Z,77.96
2018-07-28T04:17:28.160Z,77.96
2018-07-28T04:18:08.735Z,77.96
2018-07-28T04:18:49.304Z,77.96
2018-07-28T04:19:29.875Z,78.15
2018-07-28T04:20:10.448Z,77.96
2018-07-28T04:20:51.000Z,78.06
2018-07-28T04:21:31.564Z,78.15
2018-07-28T04:22:12.110Z,78.15
2018-07-28T04:22:52.669Z,78.25
2018-07-28T04:23:33.242Z,78.15
2018-07-28T04:24:13.802Z,77.96
2018-07-28T04:24:54.419Z,78.64
2018-07-28T04:25:34.943Z,78.06
2018-07-28T04:26:15.515Z,78.25
2018-07-28T04:26:56.153Z,78.25
2018-07-28T04:27:36.720Z,78.15
2018-07-28T04:28:17.293Z,78.15
2018-07-28T04:28:57.863Z,78.83
2018-07-28T04:29:38.449Z,78.64
2018-07-28T04:30:19.017Z,78.54
2018-07-28T04:30:59.574Z,78.25
2018-07-28T04:31:40.151Z,78.25
2018-07-28T04:32:20.719Z,78.44
2018-07-28T04:33:01.300Z,78.54
2018-07-28T04:33:41.867Z,78.44
2018-07-28T04:34:22.471Z,78.11
2018-07-28T04:35:03.059Z,78.25
2018-07-28T04:35:43.622Z,78.15
2018-07-28T04:36:24.203Z,78.54
2018-07-28T04:37:04.819Z,78.21
2018-07-28T04:37:45.358Z,78.54
2018-07-28T04:38:25.935Z,78.11
2018-07-28T04:39:06.507Z,78.21
2018-07-28T04:39:47.078Z,78.64
2018-07-28T04:40:27.644Z,78.31
2018-07-28T04:41:08.229Z,78.83
2018-07-28T04:41:48.808Z,78.54
2018-07-28T04:42:29.346Z,78.64
2018-07-28T04:43:09.906Z,78.54
2018-07-28T04:43:50.484Z,78.64
2018-07-28T04:44:31.063Z,78.59
2018-07-28T04:45:11.640Z,79.12
2018-07-28T04:45:52.225Z,79.22
2018-07-28T04:46:32.791Z,79.17
2018-07-28T04:47:13.379Z,79.22
2018-07-28T04:47:53.991Z,79.12
2018-07-28T04:48:34.558Z,79.41
2018-07-28T04:49:15.119Z,79.22
2018-07-28T04:49:55.865Z,79.22
2018-07-28T04:50:36.262Z,78.64
2018-07-28T04:51:16.816Z,78.64
2018-07-28T04:51:57.387Z,78.25
2018-07-28T04:52:37.937Z,78.25
2018-07-28T04:53:18.524Z,78.64
2018-07-28T04:53:59.081Z,78.64
2018-07-28T04:54:39.653Z,78.54
2018-07-28T04:55:20.239Z,78.54
2018-07-28T04:56:00.805Z,78.44
2018-07-28T04:56:41.385Z,78.54
2018-07-28T04:57:21.949Z,78.34
2018-07-28T04:58:02.535Z,78.54
2018-07-28T04:58:43.121Z,78.54
2018-07-28T04:59:23.678Z,78.34
2018-07-28T05:00:04.244Z,78.44
2018-07-28T05:00:44.819Z,78.44
2018-07-28T05:01:25.387Z,78.34
2018-07-28T05:02:05.967Z,78.25
2018-07-28T05:02:46.546Z,78.83
2018-07-28T05:03:27.123Z,78.34
2018-07-28T05:04:07.681Z,78.64
2018-07-28T05:04:48.262Z,78.54
2018-07-28T05:05:28.832Z,78.83
2018-07-28T05:06:09.400Z,78.73
2018-07-28T05:06:49.977Z,78.64
2018-07-28T05:07:30.624Z,78.64
2018-07-28T05:08:11.103Z,78.44
2018-07-28T05:08:51.672Z,78.34
2018-07-28T05:09:32.233Z,78.92
2018-07-28T05:10:12.800Z,79.22
2018-07-28T05:10:53.363Z,79.41
2018-07-28T05:11:33.934Z,79.5
2018-07-28T05:12:14.507Z,79.12
2018-07-28T05:12:55.081Z,79.5
2018-07-28T05:13:35.643Z,79.31
2018-07-28T05:14:16.222Z,79.12
2018-07-28T05:14:56.829Z,79.02
2018-07-28T05:15:37.351Z,79.5
2018-07-28T05:16:17.931Z,79.6
2018-07-28T05:16:58.494Z,79.12
2018-07-28T05:17:39.072Z,79.41
2018-07-28T05:18:19.641Z,79.12
2018-07-28T05:19:00.207Z,79.12
2018-07-28T05:19:40.765Z,79.6
2018-07-28T05:20:21.331Z,79.31
2018-07-28T05:21:01.897Z,79.41
2018-07-28T05:21:42.463Z,79.31
2018-07-28T05:22:23.038Z,78.44
2018-07-28T05:23:03.692Z,78.54
2018-07-28T05:23:44.269Z,79.02
2018-07-28T05:24:24.826Z,79.41
2018-07-28T05:25:05.398Z,79.41
2018-07-28T05:25:45.981Z,79.31
2018-07-28T05:26:26.556Z,78.38
2018-07-28T05:27:07.122Z,78.48
2018-07-28T05:27:47.735Z,78.38
2018-07-28T05:28:28.305Z,78.58
2018-07-28T05:29:08.877Z,78.67
2018-07-28T05:29:49.449Z,78.58
2018-07-28T05:30:30.017Z,78.96
2018-07-28T05:31:10.590Z,78.58
2018-07-28T05:31:51.183Z,78.67
2018-07-28T05:32:31.749Z,78.29
2018-07-28T05:33:12.320Z,78.38
2018-07-28T05:33:52.897Z,78.38
2018-07-28T05:34:33.461Z,78.19
2018-07-28T05:35:14.034Z,78.19
2018-07-28T05:35:54.655Z,78.09
2018-07-28T05:36:35.224Z,78.38
2018-07-28T05:37:15.824Z,78.29
2018-07-28T05:37:56.365Z,78.19
2018-07-28T05:38:36.970Z,78.19
2018-07-28T05:39:17.556Z,78.19
2018-07-28T05:39:58.160Z,78
2018-07-28T05:40:38.721Z,78.19
2018-07-28T05:41:19.285Z,78.09
2018-07-28T05:41:59.862Z,78.42
2018-07-28T05:42:40.448Z,77.94
2018-07-28T05:43:21.025Z,78.23
2018-07-28T05:44:01.599Z,77.84
2018-07-28T05:44:42.171Z,77.17
2018-07-28T05:45:22.736Z,76.49
2018-07-28T05:46:03.301Z,77.11
2018-07-28T05:46:43.887Z,77.11
2018-07-28T05:47:24.471Z,76.53
2018-07-28T05:48:05.032Z,76.14
2018-07-28T05:48:45.604Z,75.17
2018-07-28T05:49:26.198Z,74.53
2018-07-28T05:50:06.820Z,74.24
2018-07-28T05:50:47.396Z,74.53
2018-07-28T05:51:27.946Z,73.95
2018-07-28T05:52:08.530Z,73.75
2018-07-28T05:52:49.102Z,73.99
2018-07-28T05:53:29.654Z,73.99
2018-07-28T05:54:10.244Z,73.79
2018-07-28T05:54:50.799Z,73.79
2018-07-28T05:55:31.373Z,72.83
2018-07-28T05:56:11.950Z,72.47
2018-07-28T05:56:52.522Z,71.31
2018-07-28T05:57:33.115Z,71.06
2018-07-28T05:58:13.693Z,70.44
2018-07-28T05:58:54.261Z,70.57
2018-07-28T05:59:34.840Z,70.18
2018-07-28T06:00:15.439Z,70.37
2018-07-28T06:00:56.041Z,70.09
2018-07-28T06:01:36.630Z,69.79
2018-07-28T06:02:17.304Z,69.79
2018-07-28T06:02:57.765Z,70.18
2018-07-28T06:03:38.362Z,69.06
2018-07-28T06:04:18.928Z,68.66
2018-07-28T06:04:59.516Z,68.66
2018-07-28T06:05:40.093Z,68.57
2018-07-28T06:06:20.702Z,68.18
2018-07-28T06:07:01.284Z,68.57
2018-07-28T06:07:41.972Z,68.41
2018-07-28T06:08:22.520Z,68.99
2018-07-28T06:09:03.091Z,68.41
2018-07-28T06:09:43.673Z,67.34
2018-07-28T06:10:24.400Z,67.92
2018-07-28T06:11:04.861Z,67.44
2018-07-28T06:11:45.435Z,67.47
2018-07-28T06:12:26.010Z,68.25
2018-07-28T06:13:06.606Z,67.47
2018-07-28T06:13:47.179Z,66.99
2018-07-28T06:14:27.753Z,66.44
2018-07-28T06:15:08.325Z,65.95
2018-07-28T06:15:48.943Z,65.66
2018-07-28T06:16:29.500Z,65.75
2018-07-28T06:17:10.077Z,65.27
2018-07-28T06:17:50.633Z,64.98
2018-07-28T06:18:31.236Z,64.98
2018-07-28T06:19:11.824Z,64.88
2018-07-28T06:19:52.408Z,64.69
2018-07-28T06:20:32.980Z,64.88
2018-07-28T06:21:13.562Z,65.4
2018-07-28T06:21:54.183Z,64.91
2018-07-28T06:22:34.731Z,64.04
2018-07-28T06:23:15.362Z,63.65
2018-07-28T06:23:55.978Z,63.75
2018-07-28T06:24:36.550Z,63.84
2018-07-28T06:25:17.128Z,63.75
2018-07-28T06:25:57.815Z,63.2
2018-07-28T06:26:38.338Z,62.97
2018-07-28T06:27:18.903Z,63.29
2018-07-28T06:27:59.492Z,63.29
2018-07-28T06:28:40.057Z,64.46
2018-07-28T06:29:20.666Z,63.29
2018-07-28T06:30:01.243Z,62.71
2018-07-28T06:30:41.823Z,62.64
2018-07-28T06:31:22.415Z,63.32
2018-07-28T06:32:03.022Z,63.13
2018-07-28T06:32:43.579Z,63.13
2018-07-28T06:33:24.146Z,61.96
2018-07-28T06:34:04.724Z,61.18
2018-07-28T06:34:45.297Z,60.02
2018-07-28T06:35:25.925Z,60.53
2018-07-28T06:36:06.535Z,60.44
2018-07-28T06:36:47.171Z,60.5
2018-07-28T06:37:27.758Z,60.44
2018-07-28T06:38:08.357Z,60.05
2018-07-28T06:38:48.928Z,60.05
2018-07-28T06:39:29.588Z,60.82
2018-07-28T06:40:10.092Z,59.85
2018-07-28T06:40:50.684Z,59.85
2018-07-28T06:41:31.236Z,60.53
2018-07-28T06:42:11.803Z,60.24
2018-07-28T06:42:52.386Z,59.27
2018-07-28T06:43:32.960Z,60.36
2018-07-28T06:44:13.529Z,60.36
2018-07-28T06:44:54.118Z,59.2
2018-07-28T06:45:34.696Z,59.59
2018-07-28T06:46:15.395Z,59.1
2018-07-28T06:46:55.980Z,59.1
2018-07-28T06:47:36.567Z,58.22
2018-07-28T06:48:17.173Z,57.93
2018-07-28T06:48:57.767Z,58.42
2018-07-28T06:49:38.356Z,57.84
2018-07-28T06:50:18.938Z,58.03
2018-07-28T06:50:59.512Z,58.69
2018-07-28T06:51:40.085Z,58.32
2018-07-28T06:52:20.666Z,58.87
2018-07-28T06:53:01.268Z,59.2
2018-07-28T06:53:41.905Z,59
2018-07-28T06:54:22.421Z,59.88
2018-07-28T06:55:03.022Z,58.91
2018-07-28T06:55:43.600Z,57.93
2018-07-28T06:56:24.153Z,57.54
2018-07-28T06:57:04.776Z,58.45
2018-07-28T06:57:45.301Z,58.42
2018-07-28T06:58:25.922Z,59.42
2018-07-28T06:59:06.479Z,59.03
2018-07-28T06:59:47.072Z,59.23
2018-07-28T07:00:27.650Z,59.33
2018-07-28T07:01:08.232Z,59.23
2018-07-28T07:01:48.905Z,58.25
2018-07-28T07:02:29.481Z,56.62
2018-07-28T07:03:10.064Z,57.31
2018-07-28T07:03:50.637Z,58.09
2018-07-28T07:04:31.218Z,57.01
2018-07-28T07:05:11.789Z,56.92
2018-07-28T07:05:52.393Z,56.04
2018-07-28T07:06:32.973Z,56.04
2018-07-28T07:07:13.550Z,56.04
2018-07-28T07:07:54.134Z,55.85
2018-07-28T07:08:34.714Z,56.14
2018-07-28T07:09:15.287Z,56.89
2018-07-28T07:09:55.861Z,56.14
2018-07-28T07:10:36.452Z,55.65
2018-07-28T07:11:17.099Z,56.82
2018-07-28T07:11:57.671Z,55.85
2018-07-28T07:12:38.292Z,55.65
2018-07-28T07:13:18.901Z,55.75
2018-07-28T07:13:59.553Z,55.72
2018-07-28T07:14:40.141Z,55.43
2018-07-28T07:15:20.700Z,56.01
2018-07-28T07:16:01.275Z,55.72
2018-07-28T07:16:41.864Z,55.72
2018-07-28T07:17:22.416Z,55.82
2018-07-28T07:18:03.165Z,56.01
2018-07-28T07:18:43.761Z,56.11
2018-07-28T07:19:24.606Z,55.75
2018-07-28T07:20:05.159Z,55.62
2018-07-28T07:20:45.759Z,55.55
2018-07-28T07:21:26.329Z,56.72
2018-07-28T07:22:06.917Z,56.14
2018-07-28T07:22:47.480Z,56.14
2018-07-28T07:23:28.062Z,56.14
2018-07-28T07:24:08.687Z,56.14
2018-07-28T07:24:49.297Z,55.16
2018-07-28T07:25:29.847Z,55.26
2018-07-28T07:26:10.426Z,56.16
2018-07-28T07:26:51.039Z,55.65
2018-07-28T07:27:31.609Z,55.87
2018-07-28T07:28:12.197Z,55.29
2018-07-28T07:28:52.775Z,55.09
2018-07-28T07:29:33.359Z,54.6
2018-07-28T07:30:13.942Z,55.19
2018-07-28T07:30:54.706Z,54.44
2018-07-28T07:31:35.305Z,53.95
2018-07-28T07:32:15.895Z,54.31
2018-07-28T07:32:56.502Z,54.53
2018-07-28T07:33:37.128Z,54.5
2018-07-28T07:34:17.700Z,55.22
2018-07-28T07:34:58.352Z,53.95
2018-07-28T07:35:38.998Z,53.36
2018-07-28T07:36:19.744Z,53.56
2018-07-28T07:37:00.328Z,53.56
2018-07-28T07:37:40.909Z,53.27
2018-07-28T07:38:21.514Z,52.87
2018-07-28T07:39:02.180Z,53.27
2018-07-28T07:39:42.759Z,54.14
2018-07-28T07:40:23.350Z,54.02
2018-07-28T07:41:03.941Z,53.73
2018-07-28T07:41:44.629Z,53.53
2018-07-28T07:42:25.137Z,53.56
2018-07-28T07:43:05.877Z,54.14
2018-07-28T07:43:46.347Z,54.44
2018-07-28T07:44:26.946Z,55.61
2018-07-28T07:45:07.524Z,54.14
2018-07-28T07:45:48.098Z,54.34
2018-07-28T07:46:28.668Z,53.19
2018-07-28T07:47:09.279Z,51.92
2018-07-28T07:47:49.862Z,51.82
2018-07-28T07:48:30.544Z,51.61
2018-07-28T07:49:11.058Z,51.82
2018-07-28T07:49:51.659Z,52.02
2018-07-28T07:50:32.256Z,52.39
2018-07-28T07:51:12.835Z,52.9
2018-07-28T07:51:53.411Z,52.8
2018-07-28T07:52:33.989Z,52.8
2018-07-28T07:53:14.607Z,52.41
2018-07-28T07:53:55.229Z,53.19
2018-07-28T07:54:35.769Z,53
2018-07-28T07:55:16.398Z,52.31
2018-07-28T07:55:56.943Z,53.58
2018-07-28T07:56:37.554Z,53.49
2018-07-28T07:57:18.129Z,53.71
2018-07-28T07:57:58.693Z,54.07
2018-07-28T07:58:39.410Z,53.22
2018-07-28T07:59:19.995Z,52.8
2018-07-28T08:00:00.576Z,52.25
2018-07-28T08:00:41.169Z,51.24
2018-07-28T08:01:21.954Z,51.04
2018-07-28T08:02:02.519Z,51.04
2018-07-28T08:02:43.089Z,51.53
2018-07-28T08:03:23.653Z,51.53
2018-07-28T08:04:04.221Z,52.41
2018-07-28T08:04:44.835Z,52.02
2018-07-28T08:05:25.591Z,52.22
2018-07-28T08:06:06.107Z,51.92
2018-07-28T08:06:46.707Z,52.51
2018-07-28T08:07:27.308Z,53.88
2018-07-28T08:08:07.889Z,52.41
2018-07-28T08:08:48.462Z,52.41
2018-07-28T08:09:29.066Z,52.9
2018-07-28T08:10:09.640Z,51.63
2018-07-28T08:10:50.254Z,51.24
2018-07-28T08:11:30.830Z,50.65
2018-07-28T08:12:11.620Z,51.14
2018-07-28T08:12:52.195Z,51.34
2018-07-28T08:13:32.762Z,51.04
2018-07-28T08:14:13.374Z,51.63
2018-07-28T08:14:53.959Z,51.34
2018-07-28T08:15:34.554Z,51.34
2018-07-28T08:16:15.272Z,50.26
2018-07-28T08:16:55.855Z,50.16
2018-07-28T08:17:36.506Z,50.56
2018-07-28T08:18:17.102Z,51.04
2018-07-28T08:18:57.749Z,51.14
2018-07-28T08:19:38.284Z,50.56
2018-07-28T08:20:18.870Z,51.34
2018-07-28T08:20:59.509Z,51.34
2018-07-28T08:21:40.044Z,51.43
2018-07-28T08:22:20.625Z,51.24
2018-07-28T08:23:01.254Z,51.82
2018-07-28T08:23:41.782Z,53.09
2018-07-28T08:24:22.382Z,52.61
2018-07-28T08:25:02.944Z,52.41
2018-07-28T08:25:43.525Z,51.14
2018-07-28T08:26:24.152Z,51.04
2018-07-28T08:27:04.687Z,50.95
2018-07-28T08:27:45.285Z,51.24
2018-07-28T08:28:25.834Z,53
2018-07-28T08:29:06.416Z,52.61
2018-07-28T08:29:47.036Z,51.92
2018-07-28T08:30:27.610Z,51.34
2018-07-28T08:31:08.189Z,51.14
2018-07-28T08:31:48.782Z,50.75
2018-07-28T08:32:29.375Z,50.26
2018-07-28T08:33:09.952Z,49.78
2018-07-28T08:33:50.560Z,49.68
2018-07-28T08:34:31.128Z,49.78
2018-07-28T08:35:11.708Z,50.36
2018-07-28T08:35:52.287Z,50.75
2018-07-28T08:36:32.855Z,50.65
2018-07-28T08:37:13.437Z,50.36
2018-07-28T08:37:54.090Z,50.26
2018-07-28T08:38:34.610Z,50.36
2018-07-28T08:39:15.213Z,50.24
2018-07-28T08:39:55.828Z,50.73
2018-07-28T08:40:36.377Z,50.34
2018-07-28T08:41:16.954Z,50.73
2018-07-28T08:41:57.512Z,51.12
2018-07-28T08:42:38.081Z,51.51
2018-07-28T08:43:18.631Z,51.31
2018-07-28T08:43:59.185Z,52
2018-07-28T08:44:39.812Z,52.29
2018-07-28T08:45:20.387Z,51.41